sensor_id;sensor_type;location;lat;lon;timestamp;temperature;humidity
1063;DHT22;520;50.932;6.962;2022-10-17T00:19:47;17.90;99.90
1063;DHT22;520;50.932;6.962;2022-10-17T00:22:14;18.00;99.90
1063;DHT22;520;50.932;6.962;2022-10-17T00:24:41;18.00;99.90
1063;DHT22;520;50.932;6.962;2022-10-17T00:27:08;17.90;99.90
1063;DHT22;520;50.932;6.962;2022-10-17T00:29:35;18.00;99.90
1063;DHT22;520;50.932;6.962;2022-10-17T00:32:04;18.10;99.90
1063;DHT22;520;50.932;6.962;2022-10-17T00:34:33;18.20;99.90
1063;DHT22;520;50.932;6.962;2022-10-17T00:37:00;18.10;99.90
1063;DHT22;520;50.932;6.962;2022-10-17T00:39:27;18.10;99.90
1063;DHT22;520;50.932;6.962;2022-10-17T00:41:54;18.10;99.90
1063;DHT22;520;50.932;6.962;2022-10-17T00:55:48;18.20;99.90
1063;DHT22;520;50.932;6.962;2022-10-17T00:58:17;18.00;99.90
1063;DHT22;520;50.932;6.962;2022-10-17T01:00:46;18.10;99.90
1063;DHT22;520;50.932;6.962;2022-10-17T01:03:14;18.00;99.90
1063;DHT22;520;50.932;6.962;2022-10-17T01:05:41;18.10;99.90
1063;DHT22;520;50.932;6.962;2022-10-17T01:08:08;18.20;99.90
1063;DHT22;520;50.932;6.962;2022-10-17T01:10:48;18.00;99.90
1063;DHT22;520;50.932;6.962;2022-10-17T01:16:25;17.90;99.90
1063;DHT22;520;50.932;6.962;2022-10-17T01:24:32;18.20;99.90
1063;DHT22;520;50.932;6.962;2022-10-17T01:32:39;18.20;99.90
1063;DHT22;520;50.932;6.962;2022-10-17T01:35:21;18.20;99.90
1063;DHT22;520;50.932;6.962;2022-10-17T01:38:02;18.30;99.90
1063;DHT22;520;50.932;6.962;2022-10-17T02:06:08;18.00;99.90
1063;DHT22;520;50.932;6.962;2022-10-17T02:08:42;17.90;99.90
1063;DHT22;520;50.932;6.962;2022-10-17T02:11:23;18.00;99.90
1063;DHT22;520;50.932;6.962;2022-10-17T02:14:28;17.90;99.90
1063;DHT22;520;50.932;6.962;2022-10-17T02:20:39;18.00;99.90
1063;DHT22;520;50.932;6.962;2022-10-17T02:26:09;17.90;99.90
1063;DHT22;520;50.932;6.962;2022-10-17T02:28:55;18.00;99.90
1063;DHT22;520;50.932;6.962;2022-10-17T02:31:53;18.10;99.90
1063;DHT22;520;50.932;6.962;2022-10-17T02:34:35;18.00;99.90
1063;DHT22;520;50.932;6.962;2022-10-17T02:37:25;18.10;99.90
1063;DHT22;520;50.932;6.962;2022-10-17T02:40:02;17.80;99.90
1063;DHT22;520;50.932;6.962;2022-10-17T02:42:34;17.80;99.90
1063;DHT22;520;50.932;6.962;2022-10-17T02:45:04;18.00;99.90
1063;DHT22;520;50.932;6.962;2022-10-17T02:47:49;17.90;99.90
1063;DHT22;520;50.932;6.962;2022-10-17T02:50:21;18.00;99.90
1063;DHT22;520;50.932;6.962;2022-10-17T02:53:14;18.00;99.90
1063;DHT22;520;50.932;6.962;2022-10-17T02:55:59;18.10;99.90
1063;DHT22;520;50.932;6.962;2022-10-17T02:58:31;18.10;99.90
1063;DHT22;520;50.932;6.962;2022-10-17T03:01:10;18.10;99.90
1063;DHT22;520;50.932;6.962;2022-10-17T03:03:52;18.00;99.90
1063;DHT22;520;50.932;6.962;2022-10-17T03:06:42;18.00;99.90
1063;DHT22;520;50.932;6.962;2022-10-17T03:09:27;17.90;99.90
1063;DHT22;520;50.932;6.962;2022-10-17T03:12:12;17.90;99.90
1063;DHT22;520;50.932;6.962;2022-10-17T03:14:42;17.90;99.90
1063;DHT22;520;50.932;6.962;2022-10-17T03:17:27;18.00;99.90
1063;DHT22;520;50.932;6.962;2022-10-17T03:20:10;17.90;99.90
1063;DHT22;520;50.932;6.962;2022-10-17T03:22:54;18.00;99.90
1063;DHT22;520;50.932;6.962;2022-10-17T03:25:31;18.00;99.90
1063;DHT22;520;50.932;6.962;2022-10-17T03:28:19;17.90;99.90
1063;DHT22;520;50.932;6.962;2022-10-17T03:31:16;17.90;99.90
1063;DHT22;520;50.932;6.962;2022-10-17T03:34:02;17.90;99.90
1063;DHT22;520;50.932;6.962;2022-10-17T03:36:39;18.00;99.90
1063;DHT22;520;50.932;6.962;2022-10-17T03:39:36;18.00;99.90
1063;DHT22;520;50.932;6.962;2022-10-17T03:42:29;17.90;99.90
1063;DHT22;520;50.932;6.962;2022-10-17T03:45:24;18.00;99.90
1063;DHT22;520;50.932;6.962;2022-10-17T03:48:13;18.00;99.90
1063;DHT22;520;50.932;6.962;2022-10-17T03:50:47;18.10;99.90
1063;DHT22;520;50.932;6.962;2022-10-17T03:53:56;17.90;99.90
1063;DHT22;520;50.932;6.962;2022-10-17T03:56:44;17.90;99.90
1063;DHT22;520;50.932;6.962;2022-10-17T03:59:28;18.00;99.90
1063;DHT22;520;50.932;6.962;2022-10-17T04:02:14;18.00;99.90
1063;DHT22;520;50.932;6.962;2022-10-17T04:05:00;17.90;99.90
1063;DHT22;520;50.932;6.962;2022-10-17T04:07:55;18.00;99.90
1063;DHT22;520;50.932;6.962;2022-10-17T04:10:47;17.80;99.90
1063;DHT22;520;50.932;6.962;2022-10-17T04:13:50;18.00;99.90
1063;DHT22;520;50.932;6.962;2022-10-17T04:17:03;18.10;99.90
1063;DHT22;520;50.932;6.962;2022-10-17T04:20:34;18.20;99.90
1063;DHT22;520;50.932;6.962;2022-10-17T04:23:19;17.90;99.90
1063;DHT22;520;50.932;6.962;2022-10-17T04:28:48;18.10;99.90
1063;DHT22;520;50.932;6.962;2022-10-17T04:31:54;18.20;99.90
1063;DHT22;520;50.932;6.962;2022-10-17T04:34:41;18.20;99.90
1063;DHT22;520;50.932;6.962;2022-10-17T04:40:52;18.10;99.90
1063;DHT22;520;50.932;6.962;2022-10-17T04:43:37;18.10;99.90
1063;DHT22;520;50.932;6.962;2022-10-17T04:49:04;18.20;99.90
1063;DHT22;520;50.932;6.962;2022-10-17T04:51:40;18.20;99.90
1063;DHT22;520;50.932;6.962;2022-10-17T04:54:33;18.20;99.90
1063;DHT22;520;50.932;6.962;2022-10-17T04:57:28;18.20;99.90
1063;DHT22;520;50.932;6.962;2022-10-17T05:03:04;18.00;99.90
1063;DHT22;520;50.932;6.962;2022-10-17T05:05:54;18.00;99.90
1063;DHT22;520;50.932;6.962;2022-10-17T05:08:40;18.00;99.90
1063;DHT22;520;50.932;6.962;2022-10-17T05:14:28;18.00;99.90
1063;DHT22;520;50.932;6.962;2022-10-17T05:17:14;18.00;99.90
1063;DHT22;520;50.932;6.962;2022-10-17T05:19:49;18.00;99.90
1063;DHT22;520;50.932;6.962;2022-10-17T05:22:31;18.10;99.90
1063;DHT22;520;50.932;6.962;2022-10-17T05:25:43;18.10;99.90
1063;DHT22;520;50.932;6.962;2022-10-17T05:28:23;18.00;99.90
1063;DHT22;520;50.932;6.962;2022-10-17T05:31:22;18.10;99.90
1063;DHT22;520;50.932;6.962;2022-10-17T05:34:07;18.10;99.90
1063;DHT22;520;50.932;6.962;2022-10-17T05:37:01;18.20;99.90
1063;DHT22;520;50.932;6.962;2022-10-17T05:39:31;18.10;99.90
1063;DHT22;520;50.932;6.962;2022-10-17T05:42:00;18.10;99.90
1063;DHT22;520;50.932;6.962;2022-10-17T05:44:35;18.10;99.90
1063;DHT22;520;50.932;6.962;2022-10-17T05:47:14;18.10;99.90
1063;DHT22;520;50.932;6.962;2022-10-17T05:50:16;18.00;99.90
1063;DHT22;520;50.932;6.962;2022-10-17T05:53:01;18.00;99.90
1063;DHT22;520;50.932;6.962;2022-10-17T05:55:42;18.10;99.90
1063;DHT22;520;50.932;6.962;2022-10-17T05:58:33;18.10;99.90
1063;DHT22;520;50.932;6.962;2022-10-17T06:01:23;18.00;99.90
1063;DHT22;520;50.932;6.962;2022-10-17T06:04:15;17.90;99.90
1063;DHT22;520;50.932;6.962;2022-10-17T06:07:11;17.90;99.90
1063;DHT22;520;50.932;6.962;2022-10-17T06:10:05;18.00;99.90
1063;DHT22;520;50.932;6.962;2022-10-17T06:12:54;18.00;99.90
1063;DHT22;520;50.932;6.962;2022-10-17T06:15:32;18.20;99.90
1063;DHT22;520;50.932;6.962;2022-10-17T06:18:20;18.10;99.90
1063;DHT22;520;50.932;6.962;2022-10-17T06:21:16;18.20;99.90
1063;DHT22;520;50.932;6.962;2022-10-17T06:24:04;18.30;99.90
1063;DHT22;520;50.932;6.962;2022-10-17T06:27:12;18.30;99.90
1063;DHT22;520;50.932;6.962;2022-10-17T06:30:17;18.40;99.90
1063;DHT22;520;50.932;6.962;2022-10-17T06:33:20;18.50;99.90
1063;DHT22;520;50.932;6.962;2022-10-17T06:36:12;18.50;99.90
1063;DHT22;520;50.932;6.962;2022-10-17T06:39:08;18.50;99.90
1063;DHT22;520;50.932;6.962;2022-10-17T06:41:48;18.60;99.90
1063;DHT22;520;50.932;6.962;2022-10-17T06:44:28;18.60;99.90
1063;DHT22;520;50.932;6.962;2022-10-17T06:47:20;18.50;99.90
1063;DHT22;520;50.932;6.962;2022-10-17T06:50:21;18.60;99.90
1063;DHT22;520;50.932;6.962;2022-10-17T06:52:58;18.70;99.90
1063;DHT22;520;50.932;6.962;2022-10-17T06:55:43;18.80;99.90
1063;DHT22;520;50.932;6.962;2022-10-17T06:58:56;18.80;99.90
1063;DHT22;520;50.932;6.962;2022-10-17T07:01:59;19.00;99.90
1063;DHT22;520;50.932;6.962;2022-10-17T07:04:52;19.30;99.90
1063;DHT22;520;50.932;6.962;2022-10-17T07:07:36;20.40;99.90
1063;DHT22;520;50.932;6.962;2022-10-17T07:10:21;21.20;99.90
1063;DHT22;520;50.932;6.962;2022-10-17T07:13:20;22.00;99.20
1063;DHT22;520;50.932;6.962;2022-10-17T07:16:16;22.80;97.50
1063;DHT22;520;50.932;6.962;2022-10-17T07:19:07;22.80;96.10
1063;DHT22;520;50.932;6.962;2022-10-17T07:21:52;22.50;96.10
1063;DHT22;520;50.932;6.962;2022-10-17T07:25:04;22.10;97.60
1063;DHT22;520;50.932;6.962;2022-10-17T07:28:07;21.80;98.10
1063;DHT22;520;50.932;6.962;2022-10-17T07:31:16;21.00;99.30
1063;DHT22;520;50.932;6.962;2022-10-17T07:33:53;20.70;99.90
1063;DHT22;520;50.932;6.962;2022-10-17T07:36:46;20.40;99.90
1063;DHT22;520;50.932;6.962;2022-10-17T07:39:41;20.40;99.90
1063;DHT22;520;50.932;6.962;2022-10-17T07:43:02;20.30;99.90
1063;DHT22;520;50.932;6.962;2022-10-17T07:46:03;20.50;99.90
1063;DHT22;520;50.932;6.962;2022-10-17T07:49:19;20.90;99.90
1063;DHT22;520;50.932;6.962;2022-10-17T07:52:34;20.80;99.90
1063;DHT22;520;50.932;6.962;2022-10-17T07:58:46;20.20;99.90
1063;DHT22;520;50.932;6.962;2022-10-17T08:01:52;20.00;99.90
1063;DHT22;520;50.932;6.962;2022-10-17T08:04:47;19.80;99.90
1063;DHT22;520;50.932;6.962;2022-10-17T08:08:17;19.70;99.90
1063;DHT22;520;50.932;6.962;2022-10-17T08:11:18;20.00;99.90
1063;DHT22;520;50.932;6.962;2022-10-17T08:14:09;20.10;99.90
1063;DHT22;520;50.932;6.962;2022-10-17T08:17:02;20.00;99.90
1063;DHT22;520;50.932;6.962;2022-10-17T08:19:57;19.80;99.90
1063;DHT22;520;50.932;6.962;2022-10-17T08:22:53;20.00;99.90
1063;DHT22;520;50.932;6.962;2022-10-17T08:25:39;20.00;99.90
1063;DHT22;520;50.932;6.962;2022-10-17T08:28:41;20.00;99.90
1063;DHT22;520;50.932;6.962;2022-10-17T08:31:26;20.20;99.90
1063;DHT22;520;50.932;6.962;2022-10-17T08:34:31;20.20;99.90
1063;DHT22;520;50.932;6.962;2022-10-17T08:37:21;20.00;99.90
1063;DHT22;520;50.932;6.962;2022-10-17T08:40:49;20.00;99.90
1063;DHT22;520;50.932;6.962;2022-10-17T08:44:17;20.00;99.90
1063;DHT22;520;50.932;6.962;2022-10-17T09:00:02;20.20;99.90
1063;DHT22;520;50.932;6.962;2022-10-17T09:28:03;20.80;99.90
1063;DHT22;520;50.932;6.962;2022-10-17T09:31:40;20.80;99.90
1063;DHT22;520;50.932;6.962;2022-10-17T09:34:59;20.90;99.90
1063;DHT22;520;50.932;6.962;2022-10-17T09:37:59;20.80;99.90
1063;DHT22;520;50.932;6.962;2022-10-17T09:47:48;20.60;99.90
1063;DHT22;520;50.932;6.962;2022-10-17T09:50:33;20.70;99.90
1063;DHT22;520;50.932;6.962;2022-10-17T09:57:14;20.90;99.90
1063;DHT22;520;50.932;6.962;2022-10-17T10:00:32;21.10;99.90
1063;DHT22;520;50.932;6.962;2022-10-17T10:07:19;21.40;99.90
1063;DHT22;520;50.932;6.962;2022-10-17T10:10:22;21.50;99.90
1063;DHT22;520;50.932;6.962;2022-10-17T10:17:40;21.60;99.90
1063;DHT22;520;50.932;6.962;2022-10-17T10:20:35;21.90;99.50
1063;DHT22;520;50.932;6.962;2022-10-17T10:26:52;22.00;99.30
1063;DHT22;520;50.932;6.962;2022-10-17T10:29:57;22.20;98.90
1063;DHT22;520;50.932;6.962;2022-10-17T10:33:13;22.10;99.00
1063;DHT22;520;50.932;6.962;2022-10-17T10:36:24;21.90;99.50
1063;DHT22;520;50.932;6.962;2022-10-17T10:42:31;21.80;99.80
1063;DHT22;520;50.932;6.962;2022-10-17T10:51:53;21.80;99.90
1063;DHT22;520;50.932;6.962;2022-10-17T11:02:07;21.90;99.80
1063;DHT22;520;50.932;6.962;2022-10-17T11:39:29;22.00;99.90
1063;DHT22;520;50.932;6.962;2022-10-17T11:51:07;22.00;99.90
1063;DHT22;520;50.932;6.962;2022-10-17T12:12:34;22.20;99.90
1063;DHT22;520;50.932;6.962;2022-10-17T12:57:02;22.40;98.70
1063;DHT22;520;50.932;6.962;2022-10-17T13:06:54;22.30;99.10
1063;DHT22;520;50.932;6.962;2022-10-17T13:09:56;22.60;98.70
1063;DHT22;520;50.932;6.962;2022-10-17T13:12:41;22.70;98.30
1063;DHT22;520;50.932;6.962;2022-10-17T13:15:26;22.40;98.60
1063;DHT22;520;50.932;6.962;2022-10-17T13:17:58;22.30;98.90
1063;DHT22;520;50.932;6.962;2022-10-17T13:24:25;22.50;98.70
1063;DHT22;520;50.932;6.962;2022-10-17T13:26:56;22.30;99.20
1063;DHT22;520;50.932;6.962;2022-10-17T13:29:29;22.10;99.60
1063;DHT22;520;50.932;6.962;2022-10-17T13:32:03;22.00;99.70
1063;DHT22;520;50.932;6.962;2022-10-17T13:38:33;22.40;99.50
1063;DHT22;520;50.932;6.962;2022-10-17T13:41:27;22.60;98.90
1063;DHT22;520;50.932;6.962;2022-10-17T13:44:30;22.50;99.00
1063;DHT22;520;50.932;6.962;2022-10-17T13:54:34;22.40;99.30
1063;DHT22;520;50.932;6.962;2022-10-17T13:58:07;22.00;99.80
1063;DHT22;520;50.932;6.962;2022-10-17T14:01:08;22.40;99.70
1063;DHT22;520;50.932;6.962;2022-10-17T14:03:52;22.30;99.60
1063;DHT22;520;50.932;6.962;2022-10-17T14:07:02;22.10;99.90
1063;DHT22;520;50.932;6.962;2022-10-17T14:16:49;21.80;99.90
1063;DHT22;520;50.932;6.962;2022-10-17T14:20:20;21.70;99.90
1063;DHT22;520;50.932;6.962;2022-10-17T14:23:41;21.70;99.90
1063;DHT22;520;50.932;6.962;2022-10-17T14:32:30;21.80;99.90
1063;DHT22;520;50.932;6.962;2022-10-17T14:35:39;21.80;99.90
1063;DHT22;520;50.932;6.962;2022-10-17T14:39:27;21.90;99.90
1063;DHT22;520;50.932;6.962;2022-10-17T14:54:33;21.70;99.80
1063;DHT22;520;50.932;6.962;2022-10-17T15:06:39;21.60;99.70
1063;DHT22;520;50.932;6.962;2022-10-17T15:10:25;21.70;99.70
1063;DHT22;520;50.932;6.962;2022-10-17T15:17:19;21.70;99.70
1063;DHT22;520;50.932;6.962;2022-10-17T15:25:00;21.60;99.90
1063;DHT22;520;50.932;6.962;2022-10-17T15:28:21;21.60;99.90
1063;DHT22;520;50.932;6.962;2022-10-17T15:53:47;21.50;99.90
1063;DHT22;520;50.932;6.962;2022-10-17T15:57:20;21.50;99.90
1063;DHT22;520;50.932;6.962;2022-10-17T16:19:49;21.30;99.90
1063;DHT22;520;50.932;6.962;2022-10-17T16:35:58;21.10;99.90
1063;DHT22;520;50.932;6.962;2022-10-17T16:39:34;21.10;99.90
1063;DHT22;520;50.932;6.962;2022-10-17T16:43:05;20.90;99.90
1063;DHT22;520;50.932;6.962;2022-10-17T16:53:57;20.60;99.90
1063;DHT22;520;50.932;6.962;2022-10-17T17:04:34;20.40;99.90
1063;DHT22;520;50.932;6.962;2022-10-17T17:08:17;20.30;99.90
1063;DHT22;520;50.932;6.962;2022-10-17T17:11:52;20.30;99.90
1063;DHT22;520;50.932;6.962;2022-10-17T17:14:53;20.20;99.90
1063;DHT22;520;50.932;6.962;2022-10-17T17:25:27;20.10;99.90
1063;DHT22;520;50.932;6.962;2022-10-17T17:28:10;20.00;99.90
1063;DHT22;520;50.932;6.962;2022-10-17T17:31:15;20.10;99.90
1063;DHT22;520;50.932;6.962;2022-10-17T17:39:00;20.00;99.90
1063;DHT22;520;50.932;6.962;2022-10-17T17:42:04;20.00;99.90
1063;DHT22;520;50.932;6.962;2022-10-17T17:49:28;19.90;99.90
1063;DHT22;520;50.932;6.962;2022-10-17T17:53:17;19.80;99.90
1063;DHT22;520;50.932;6.962;2022-10-17T17:56:23;19.70;99.90
1063;DHT22;520;50.932;6.962;2022-10-17T18:00:32;19.70;99.90
1063;DHT22;520;50.932;6.962;2022-10-17T18:08:08;19.60;99.90
1063;DHT22;520;50.932;6.962;2022-10-17T18:11:49;19.60;99.90
1063;DHT22;520;50.932;6.962;2022-10-17T18:15:05;19.60;99.90
1063;DHT22;520;50.932;6.962;2022-10-17T18:18:54;19.60;99.90
1063;DHT22;520;50.932;6.962;2022-10-17T18:22:48;19.60;99.90
1063;DHT22;520;50.932;6.962;2022-10-17T18:26:46;19.60;99.90
1063;DHT22;520;50.932;6.962;2022-10-17T18:29:58;19.60;99.90
1063;DHT22;520;50.932;6.962;2022-10-17T18:33:30;19.60;99.90
1063;DHT22;520;50.932;6.962;2022-10-17T18:36:30;19.60;99.90
1063;DHT22;520;50.932;6.962;2022-10-17T18:39:42;19.60;99.90
1063;DHT22;520;50.932;6.962;2022-10-17T18:50:42;19.60;99.90
1063;DHT22;520;50.932;6.962;2022-10-17T19:02:08;19.80;99.90
1063;DHT22;520;50.932;6.962;2022-10-17T19:09:46;19.80;99.90
1063;DHT22;520;50.932;6.962;2022-10-17T19:29:18;20.10;99.90
1063;DHT22;520;50.932;6.962;2022-10-17T19:40:13;19.50;99.90
1063;DHT22;520;50.932;6.962;2022-10-17T19:42:54;19.50;99.90
1063;DHT22;520;50.932;6.962;2022-10-17T19:46:40;19.40;99.90
1063;DHT22;520;50.932;6.962;2022-10-17T19:53:03;19.30;99.90
1063;DHT22;520;50.932;6.962;2022-10-17T19:56:07;19.30;99.90
1063;DHT22;520;50.932;6.962;2022-10-17T20:03:17;19.60;99.90
1063;DHT22;520;50.932;6.962;2022-10-17T20:13:52;19.60;99.90
1063;DHT22;520;50.932;6.962;2022-10-17T20:16:55;19.60;99.90
1063;DHT22;520;50.932;6.962;2022-10-17T20:19:56;19.70;99.90
1063;DHT22;520;50.932;6.962;2022-10-17T20:23:18;19.80;99.90
1063;DHT22;520;50.932;6.962;2022-10-17T20:44:37;19.10;99.90
1063;DHT22;520;50.932;6.962;2022-10-17T20:47:30;19.20;99.90
1063;DHT22;520;50.932;6.962;2022-10-17T20:54:06;19.50;99.90
1063;DHT22;520;50.932;6.962;2022-10-17T20:57:22;19.20;99.90
1063;DHT22;520;50.932;6.962;2022-10-17T21:01:03;19.10;99.90
1063;DHT22;520;50.932;6.962;2022-10-17T21:04:33;19.10;99.90
1063;DHT22;520;50.932;6.962;2022-10-17T21:07:48;19.30;99.90
1063;DHT22;520;50.932;6.962;2022-10-17T21:14:15;19.30;99.90
1063;DHT22;520;50.932;6.962;2022-10-17T21:17:22;19.30;99.90
1063;DHT22;520;50.932;6.962;2022-10-17T21:23:12;18.80;99.90
1063;DHT22;520;50.932;6.962;2022-10-17T21:29:18;18.60;99.90
1063;DHT22;520;50.932;6.962;2022-10-17T21:32:18;18.60;99.90
1063;DHT22;520;50.932;6.962;2022-10-17T21:35:22;18.50;99.90
1063;DHT22;520;50.932;6.962;2022-10-17T21:38:39;18.80;99.90
1063;DHT22;520;50.932;6.962;2022-10-17T21:45:00;18.70;99.90
1063;DHT22;520;50.932;6.962;2022-10-17T21:50:38;18.50;99.90
1063;DHT22;520;50.932;6.962;2022-10-17T21:53:36;18.50;99.90
1063;DHT22;520;50.932;6.962;2022-10-17T21:56:52;18.80;99.90
1063;DHT22;520;50.932;6.962;2022-10-17T22:05:52;18.50;99.90
1063;DHT22;520;50.932;6.962;2022-10-17T22:09:07;18.40;99.90
1063;DHT22;520;50.932;6.962;2022-10-17T22:12:31;18.30;99.90
1063;DHT22;520;50.932;6.962;2022-10-17T22:15:25;18.60;99.90
1063;DHT22;520;50.932;6.962;2022-10-17T22:18:39;18.60;99.90
1063;DHT22;520;50.932;6.962;2022-10-17T22:21:46;18.40;99.90
1063;DHT22;520;50.932;6.962;2022-10-17T22:24:52;18.30;99.90
1063;DHT22;520;50.932;6.962;2022-10-17T22:27:37;18.30;99.90
1063;DHT22;520;50.932;6.962;2022-10-17T22:34:21;18.60;99.90
1063;DHT22;520;50.932;6.962;2022-10-17T22:37:39;18.80;99.90
1063;DHT22;520;50.932;6.962;2022-10-17T22:40:53;18.60;99.90
1063;DHT22;520;50.932;6.962;2022-10-17T22:44:14;18.40;99.90
1063;DHT22;520;50.932;6.962;2022-10-17T22:47:49;18.40;99.90
1063;DHT22;520;50.932;6.962;2022-10-17T22:50:41;18.40;99.90
1063;DHT22;520;50.932;6.962;2022-10-17T22:53:08;18.50;99.90
1063;DHT22;520;50.932;6.962;2022-10-17T22:56:05;18.50;99.90
1063;DHT22;520;50.932;6.962;2022-10-17T22:59:07;18.60;99.90
1063;DHT22;520;50.932;6.962;2022-10-17T23:02:04;18.50;99.90
1063;DHT22;520;50.932;6.962;2022-10-17T23:04:47;18.30;99.90
1063;DHT22;520;50.932;6.962;2022-10-17T23:08:08;18.10;99.90
1063;DHT22;520;50.932;6.962;2022-10-17T23:10:47;18.30;99.90
1063;DHT22;520;50.932;6.962;2022-10-17T23:16:42;18.20;99.90
1063;DHT22;520;50.932;6.962;2022-10-17T23:51:32;18.20;99.90
1063;DHT22;520;50.932;6.962;2022-10-17T23:54:58;18.30;99.90
